Time;durP1;ratioP1;P1;durP2;ratioP2;P2;SDS_P1;SDS_P2;PMS_P1;PMS_P2;Temp;Humidity;BMP_temperature;BMP_pressure;BME280_temperature;BME280_humidity;BME280_pressure;Samples;Min_cycle;Max_cycle;Signal;HPM_P1;HPM_P2
2021/12/10 00:00:50;;;;;;;8.55;4.22;;;2.70;99.90;;;;;;5073548;28;20207;-68
2021/12/10 00:03:45;;;;;;;9.43;4.45;;;2.60;99.90;;;;;;5073317;28;20192;-68
2021/12/10 00:06:19;;;;;;;6.68;4.50;;;2.50;99.90;;;;;;5073806;28;20251;-68
2021/12/10 00:08:51;;;;;;;10.70;4.72;;;2.50;99.90;;;;;;5072072;28;20249;-68
2021/12/10 00:11:30;;;;;;;5.75;4.10;;;2.50;99.90;;;;;;5072334;28;20599;-68
2021/12/10 00:13:57;;;;;;;6.30;4.20;;;2.40;99.90;;;;;;5073617;28;20185;-68
2021/12/10 00:16:24;;;;;;;6.13;4.03;;;2.40;99.90;;;;;;5075883;28;20602;-67
2021/12/10 00:18:56;;;;;;;7.30;3.83;;;2.40;99.90;;;;;;5077163;28;20200;-68
2021/12/10 00:21:26;;;;;;;8.65;3.78;;;2.30;99.90;;;;;;5075637;28;20204;-68
2021/12/10 00:23:56;;;;;;;7.18;4.00;;;2.40;99.90;;;;;;5075730;28;20202;-68
2021/12/10 00:26:23;;;;;;;9.02;4.50;;;2.40;99.90;;;;;;5077500;28;20196;-68
2021/12/10 00:28:51;;;;;;;14.05;4.70;;;2.40;99.90;;;;;;5077363;28;20211;-68
2021/12/10 00:34:37;;;;;;;10.80;4.20;;;2.40;99.90;;;;;;5072734;28;20221;-68
2021/12/10 00:37:08;;;;;;;8.10;3.33;;;2.40;99.90;;;;;;5076978;28;20187;-68
2021/12/10 00:39:41;;;;;;;8.63;3.28;;;2.40;99.90;;;;;;5077265;28;20189;-68
2021/12/10 00:42:14;;;;;;;6.70;3.83;;;2.30;99.90;;;;;;5075596;28;20231;-68
2021/12/10 00:44:42;;;;;;;7.78;3.47;;;2.30;99.90;;;;;;5077217;28;20184;-68
2021/12/10 00:47:08;;;;;;;6.70;2.90;;;2.30;99.90;;;;;;5076774;28;20664;-68
2021/12/10 00:49:35;;;;;;;9.63;3.75;;;2.30;99.90;;;;;;5076824;28;20199;-68
2021/12/10 00:52:05;;;;;;;14.95;3.67;;;2.30;99.90;;;;;;5075171;28;20224;-67
2021/12/10 00:54:31;;;;;;;8.00;3.03;;;2.20;99.90;;;;;;5076494;28;20222;-67
2021/12/10 00:56:58;;;;;;;5.45;3.10;;;2.20;99.90;;;;;;5076903;28;20196;-67
2021/12/10 00:59:25;;;;;;;5.38;2.80;;;2.20;99.90;;;;;;5075283;28;20223;-67
2021/12/10 01:01:52;;;;;;;4.82;3.00;;;2.20;99.90;;;;;;5075505;28;20218;-67
2021/12/10 01:04:26;;;;;;;11.05;2.80;;;2.20;99.90;;;;;;5076900;28;20539;-67
2021/12/10 01:06:56;;;;;;;5.53;2.70;;;2.10;99.90;;;;;;5076720;28;20521;-67
2021/12/10 01:09:26;;;;;;;7.82;2.88;;;2.10;99.90;;;;;;5076560;28;20207;-67
2021/12/10 01:12:13;;;;;;;11.38;4.82;;;2.10;99.90;;;;;;5075941;28;20213;-67
2021/12/10 01:15:00;;;;;;;6.15;2.85;;;2.10;99.90;;;;;;5076393;28;20200;-67
2021/12/10 01:26:23;;;;;;;10.82;3.22;;;2.10;99.90;;;;;;5076240;28;20581;-67
2021/12/10 01:28:54;;;;;;;5.05;2.97;;;2.10;99.90;;;;;;5075276;28;20563;-67
2021/12/10 01:31:21;;;;;;;7.65;2.85;;;2.00;99.90;;;;;;5075713;28;20668;-67
2021/12/10 01:33:49;;;;;;;9.93;4.07;;;2.00;99.90;;;;;;5074518;28;20211;-67
2021/12/10 01:36:16;;;;;;;8.10;3.03;;;1.90;99.90;;;;;;5074618;28;20191;-67
2021/12/10 01:38:46;;;;;;;10.50;3.08;;;1.90;99.90;;;;;;5075789;28;20200;-67
2021/12/10 01:41:16;;;;;;;14.98;4.13;;;1.90;99.90;;;;;;5075919;28;20216;-67
2021/12/10 01:43:47;;;;;;;6.53;2.72;;;2.00;99.90;;;;;;5074716;28;20207;-67
2021/12/10 01:46:24;;;;;;;8.30;2.95;;;2.00;99.90;;;;;;5076032;28;20203;-67
2021/12/10 01:48:55;;;;;;;7.30;3.50;;;2.00;99.90;;;;;;5075781;28;20200;-68
2021/12/10 01:51:25;;;;;;;8.55;3.42;;;2.00;99.90;;;;;;5075362;28;20227;-68
2021/12/10 01:53:56;;;;;;;9.77;3.05;;;1.90;99.90;;;;;;5075593;28;20220;-68
2021/12/10 01:56:28;;;;;;;12.68;3.40;;;1.90;99.90;;;;;;5073957;28;20208;-68
2021/12/10 01:58:57;;;;;;;11.38;3.53;;;1.90;99.90;;;;;;5074219;28;20192;-68
2021/12/10 02:01:38;;;;;;;9.32;3.80;;;1.80;99.90;;;;;;5075826;28;20249;-67
2021/12/10 02:04:07;;;;;;;6.22;3.65;;;1.70;99.90;;;;;;5075452;28;20214;-67
2021/12/10 02:06:35;;;;;;;6.35;3.30;;;1.70;99.90;;;;;;5075519;28;20204;-68
2021/12/10 02:09:03;;;;;;;6.97;3.88;;;1.60;99.90;;;;;;5074953;28;20208;-68
2021/12/10 02:11:29;;;;;;;5.90;3.47;;;1.60;99.90;;;;;;5075408;28;20246;-68
2021/12/10 02:13:56;;;;;;;9.52;3.47;;;1.50;99.90;;;;;;5074911;28;20218;-68
2021/12/10 02:16:23;;;;;;;12.32;4.20;;;1.40;99.90;;;;;;5075034;28;20200;-68
2021/12/10 02:18:50;;;;;;;16.50;5.32;;;1.40;99.90;;;;;;5074907;28;20214;-68
2021/12/10 02:21:22;;;;;;;4.68;3.90;;;1.40;99.90;;;;;;5074900;28;20207;-68
2021/12/10 02:23:58;;;;;;;11.63;4.38;;;1.30;99.90;;;;;;5075045;28;20199;-66
2021/12/10 02:26:47;;;;;;;11.52;4.70;;;1.30;99.90;;;;;;5074978;28;20187;-67
2021/12/10 02:29:15;;;;;;;7.10;2.88;;;1.20;99.90;;;;;;5074663;28;20200;-67
2021/12/10 02:31:41;;;;;;;14.48;4.30;;;1.20;99.90;;;;;;5074847;28;20223;-68
2021/12/10 02:34:08;;;;;;;10.45;3.92;;;1.10;99.90;;;;;;5074791;28;20204;-68
2021/12/10 02:36:42;;;;;;;6.05;3.47;;;1.10;99.90;;;;;;5074617;28;20200;-68
2021/12/10 02:39:15;;;;;;;13.35;3.75;;;1.10;99.90;;;;;;5073133;28;20212;-68
2021/12/10 02:41:41;;;;;;;5.50;3.50;;;1.00;99.90;;;;;;5074745;28;20193;-68
2021/12/10 02:44:12;;;;;;;5.53;4.10;;;1.10;99.90;;;;;;5074326;28;20635;-66
2021/12/10 02:46:40;;;;;;;9.68;3.80;;;1.00;99.90;;;;;;5074243;28;20207;-67
2021/12/10 02:49:08;;;;;;;7.43;3.15;;;1.00;99.90;;;;;;5074633;28;20211;-67
2021/12/10 02:51:36;;;;;;;7.60;3.40;;;0.90;99.90;;;;;;5073954;28;20250;-68
2021/12/10 02:54:05;;;;;;;7.25;3.63;;;0.90;99.90;;;;;;5074306;28;20215;-68
2021/12/10 02:56:32;;;;;;;12.63;4.00;;;0.80;99.90;;;;;;5074373;28;20253;-67
2021/12/10 02:59:01;;;;;;;9.57;5.82;;;0.80;99.90;;;;;;5072945;28;20245;-67
2021/12/10 03:01:44;;;;;;;16.92;6.95;;;0.70;99.90;;;;;;5074257;28;20204;-67
2021/12/10 03:04:11;;;;;;;18.55;6.30;;;0.70;99.90;;;;;;5074434;28;20187;-68
2021/12/10 03:06:45;;;;;;;16.95;6.72;;;0.60;99.90;;;;;;5074022;28;20204;-68
2021/12/10 03:09:13;;;;;;;14.43;6.05;;;0.60;99.90;;;;;;5073966;28;20673;-67
2021/12/10 03:11:46;;;;;;;11.90;4.63;;;0.60;99.90;;;;;;5073849;28;20220;-67
2021/12/10 03:14:19;;;;;;;17.42;5.75;;;0.50;99.90;;;;;;5074098;28;20257;-67
2021/12/10 03:16:48;;;;;;;10.15;4.53;;;0.50;99.90;;;;;;5073629;28;20196;-67
2021/12/10 03:19:15;;;;;;;11.65;5.10;;;0.50;99.90;;;;;;5073977;28;20204;-67
2021/12/10 03:21:45;;;;;;;10.65;5.22;;;0.40;99.90;;;;;;5073506;28;20675;-67
2021/12/10 03:24:14;;;;;;;11.13;5.03;;;0.40;99.90;;;;;;5073771;28;20257;-67
2021/12/10 03:26:41;;;;;;;9.60;4.55;;;0.30;99.90;;;;;;5073854;28;20196;-67
2021/12/10 03:29:08;;;;;;;7.30;3.40;;;0.20;99.90;;;;;;5074037;28;20203;-67
2021/12/10 03:31:35;;;;;;;7.55;4.15;;;0.20;99.90;;;;;;5073308;28;20227;-67
2021/12/10 03:34:02;;;;;;;8.90;4.40;;;0.20;99.90;;;;;;5073961;28;20253;-67
2021/12/10 03:36:29;;;;;;;8.02;4.85;;;0.20;99.90;;;;;;5072259;28;20659;-67
2021/12/10 03:38:56;;;;;;;10.77;4.65;;;0.20;99.90;;;;;;5072279;28;20207;-67
2021/12/10 03:41:23;;;;;;;9.98;4.43;;;0.30;99.90;;;;;;5073403;28;20238;-67
2021/12/10 03:43:53;;;;;;;8.25;4.05;;;0.30;99.90;;;;;;5073194;28;20212;-67
2021/12/10 03:46:21;;;;;;;8.13;3.95;;;0.30;99.90;;;;;;5055524;28;20219;-67
2021/12/10 03:48:48;;;;;;;11.43;4.55;;;0.30;99.90;;;;;;5072024;28;20571;-67
2021/12/10 03:51:22;;;;;;;7.95;3.55;;;0.30;99.90;;;;;;5072410;28;20615;-67
2021/12/10 03:53:49;;;;;;;8.27;3.80;;;0.30;99.90;;;;;;5073469;28;20224;-68
2021/12/10 03:56:19;;;;;;;11.73;5.18;;;0.40;99.90;;;;;;5073521;28;20204;-67
2021/12/10 03:58:47;;;;;;;6.68;4.40;;;0.40;99.90;;;;;;5073906;28;20233;-67
2021/12/10 04:01:15;;;;;;;8.32;4.78;;;0.40;99.90;;;;;;5073513;28;20196;-68
2021/12/10 04:03:44;;;;;;;13.57;4.97;;;0.40;99.90;;;;;;5073390;28;20651;-68
2021/12/10 04:06:10;;;;;;;8.38;4.68;;;0.30;99.90;;;;;;5073178;28;20546;-68
2021/12/10 04:08:37;;;;;;;23.52;12.18;;;0.30;99.90;;;;;;5073229;28;20207;-68
2021/12/10 04:11:06;;;;;;;25.65;12.40;;;0.40;99.90;;;;;;5073304;28;20207;-67
2021/12/10 04:13:33;;;;;;;17.23;11.20;;;0.40;99.90;;;;;;5073298;28;20569;-67
2021/12/10 04:16:00;;;;;;;28.60;15.65;;;0.30;99.90;;;;;;5073616;28;20196;-67
2021/12/10 04:18:26;;;;;;;34.60;16.33;;;0.30;99.90;;;;;;5071728;28;20208;-67
2021/12/10 04:20:53;;;;;;;33.65;16.25;;;0.20;99.90;;;;;;5073208;28;20253;-67
2021/12/10 04:23:21;;;;;;;36.10;15.63;;;0.20;99.90;;;;;;5072953;28;20219;-67
2021/12/10 04:25:47;;;;;;;29.23;15.10;;;0.20;99.90;;;;;;5072851;28;20615;-67
2021/12/10 04:28:17;;;;;;;30.17;14.30;;;0.20;99.90;;;;;;5072652;28;20667;-67
2021/12/10 04:30:46;;;;;;;22.10;11.30;;;0.10;99.90;;;;;;5073095;28;20547;-68
2021/12/10 04:33:15;;;;;;;17.50;6.38;;;0.10;99.90;;;;;;5073222;28;20220;-67
2021/12/10 04:35:44;;;;;;;7.78;4.15;;;0.20;99.90;;;;;;5071850;28;20614;-67
2021/12/10 04:38:11;;;;;;;12.32;7.53;;;0.20;99.90;;;;;;5073250;28;20261;-67
2021/12/10 04:40:38;;;;;;;12.68;7.50;;;0.20;99.90;;;;;;5071543;28;20204;-68
2021/12/10 04:43:05;;;;;;;14.23;7.70;;;0.20;99.90;;;;;;5073272;28;20568;-67
2021/12/10 04:45:31;;;;;;;12.75;7.10;;;0.10;99.90;;;;;;5072701;28;20537;-68
2021/12/10 04:47:58;;;;;;;21.65;7.60;;;0.10;99.90;;;;;;5071540;28;20211;-67
2021/12/10 04:50:27;;;;;;;14.65;7.85;;;0.10;99.90;;;;;;5072891;28;20228;-68
2021/12/10 04:52:55;;;;;;;9.70;6.38;;;0.20;99.90;;;;;;5072789;28;20223;-68
2021/12/10 04:55:22;;;;;;;13.02;5.13;;;0.20;99.90;;;;;;5072915;28;20508;-68
2021/12/10 04:57:48;;;;;;;10.38;5.10;;;0.20;99.90;;;;;;5072933;28;20208;-68
2021/12/10 05:00:26;;;;;;;5.63;4.20;;;0.30;99.90;;;;;;5073107;28;20204;-67
2021/12/10 05:02:54;;;;;;;13.93;6.53;;;0.30;99.90;;;;;;5074272;28;20212;-67
2021/12/10 05:05:20;;;;;;;10.82;5.47;;;0.30;99.90;;;;;;5076265;28;20707;-67
2021/12/10 05:07:47;;;;;;;5.13;3.10;;;0.20;99.90;;;;;;5076413;28;20200;-68
2021/12/10 05:10:17;;;;;;;14.73;4.88;;;0.20;99.90;;;;;;5076138;28;20196;-68
2021/12/10 05:12:44;;;;;;;7.57;4.63;;;0.30;99.90;;;;;;5075670;28;20220;-68
2021/12/10 05:15:16;;;;;;;11.43;3.58;;;0.20;99.90;;;;;;5076231;28;20196;-67
2021/12/10 05:17:43;;;;;;;6.32;4.15;;;0.30;99.90;;;;;;5074811;28;20345;-67
2021/12/10 05:20:18;;;;;;;10.43;3.70;;;0.20;99.90;;;;;;5076122;28;20199;-67
2021/12/10 05:22:46;;;;;;;10.52;4.15;;;0.20;99.90;;;;;;5076217;28;20596;-67
2021/12/10 05:25:13;;;;;;;8.60;3.53;;;0.20;99.90;;;;;;5076077;28;20208;-68
2021/12/10 05:27:40;;;;;;;12.45;3.83;;;0.20;99.90;;;;;;5075877;28;20640;-67
2021/12/10 05:30:10;;;;;;;8.02;3.60;;;0.30;99.90;;;;;;5075648;28;20199;-67
2021/12/10 05:32:36;;;;;;;3.95;3.28;;;0.30;99.90;;;;;;5074477;28;20216;-67
2021/12/10 05:35:04;;;;;;;11.18;4.57;;;0.30;99.90;;;;;;5075733;28;20249;-68
2021/12/10 05:37:31;;;;;;;10.80;5.25;;;0.20;99.90;;;;;;5075759;28;20204;-67
2021/12/10 05:39:57;;;;;;;12.07;6.07;;;0.20;99.90;;;;;;5075843;28;20204;-67
2021/12/10 05:42:24;;;;;;;17.10;6.28;;;0.20;99.90;;;;;;5075836;28;20226;-68
2021/12/10 05:44:51;;;;;;;19.13;6.82;;;0.30;99.90;;;;;;5075650;28;20215;-68
2021/12/10 05:47:18;;;;;;;10.00;5.50;;;0.20;99.90;;;;;;5074262;28;20208;-68
2021/12/10 05:49:45;;;;;;;12.40;5.47;;;0.20;99.90;;;;;;5075277;28;20711;-68
2021/12/10 05:52:12;;;;;;;13.90;6.85;;;0.20;99.90;;;;;;5075522;28;20223;-67
2021/12/10 05:54:39;;;;;;;9.70;4.75;;;0.20;99.90;;;;;;5074358;28;20551;-67
2021/12/10 05:57:06;;;;;;;9.38;4.35;;;0.20;99.90;;;;;;5075582;28;20643;-67
2021/12/10 05:59:32;;;;;;;10.13;5.15;;;0.20;99.90;;;;;;5075173;28;20197;-67
2021/12/10 06:01:59;;;;;;;18.85;6.60;;;0.20;99.90;;;;;;5075268;28;20264;-67
2021/12/10 06:04:27;;;;;;;12.52;4.88;;;0.20;99.90;;;;;;5075302;28;20196;-67
2021/12/10 06:06:55;;;;;;;15.93;6.22;;;0.30;99.90;;;;;;5075394;28;20208;-67
2021/12/10 06:09:23;;;;;;;12.32;5.70;;;0.30;99.90;;;;;;5074834;28;20207;-67
2021/12/10 06:11:50;;;;;;;8.00;4.63;;;0.30;99.90;;;;;;5074942;28;20286;-67
2021/12/10 06:14:16;;;;;;;7.20;4.20;;;0.30;99.90;;;;;;5073170;28;20200;-67
2021/12/10 06:16:43;;;;;;;9.18;3.00;;;0.30;99.90;;;;;;5074885;28;20192;-67
2021/12/10 06:19:09;;;;;;;16.30;4.65;;;0.30;99.90;;;;;;5075448;28;20223;-67
2021/12/10 06:21:38;;;;;;;4.65;2.50;;;0.30;99.90;;;;;;5074969;28;20562;-67
2021/12/10 06:24:06;;;;;;;6.20;3.25;;;0.30;99.90;;;;;;5074768;28;20260;-67
2021/12/10 06:26:33;;;;;;;6.45;3.15;;;0.30;99.90;;;;;;5075052;28;20200;-67
2021/12/10 06:29:00;;;;;;;6.90;3.28;;;0.30;99.90;;;;;;5073373;28;20204;-67
2021/12/10 06:31:27;;;;;;;7.10;3.90;;;0.30;99.90;;;;;;5074269;28;20257;-68
2021/12/10 06:33:54;;;;;;;7.47;3.55;;;0.30;99.90;;;;;;5074124;28;20232;-67
2021/12/10 06:36:21;;;;;;;8.60;4.07;;;0.30;99.90;;;;;;5074799;28;20204;-67
2021/12/10 06:38:48;;;;;;;12.02;5.32;;;0.30;99.90;;;;;;5074720;28;20232;-67
2021/12/10 06:41:16;;;;;;;12.30;6.15;;;0.30;99.90;;;;;;5074378;28;20196;-68
2021/12/10 06:43:43;;;;;;;10.95;5.63;;;0.40;99.90;;;;;;5074249;28;20196;-66
2021/12/10 06:46:11;;;;;;;19.67;6.35;;;0.40;99.90;;;;;;5074518;28;20199;-66
2021/12/10 06:48:38;;;;;;;16.15;6.78;;;0.40;99.90;;;;;;5074056;28;20570;-67
2021/12/10 06:51:09;;;;;;;13.60;6.00;;;0.50;99.90;;;;;;5074389;28;20297;-67
2021/12/10 06:53:37;;;;;;;10.30;5.07;;;0.50;99.90;;;;;;5073785;28;20239;-67
2021/12/10 06:56:04;;;;;;;5.43;3.47;;;0.50;99.90;;;;;;5072747;28;20692;-67
2021/12/10 06:58:33;;;;;;;7.85;5.03;;;0.50;99.90;;;;;;5073911;28;20200;-67
2021/12/10 07:01:06;;;;;;;7.80;5.15;;;0.50;99.90;;;;;;5074110;28;20200;-68
2021/12/10 07:03:34;;;;;;;8.63;4.20;;;0.50;99.90;;;;;;5073849;28;20208;-68
2021/12/10 07:06:02;;;;;;;8.02;4.10;;;0.50;99.90;;;;;;5073949;28;20200;-68
2021/12/10 07:08:31;;;;;;;12.27;5.20;;;0.50;99.90;;;;;;5073611;28;20211;-67
2021/12/10 07:10:59;;;;;;;10.32;5.25;;;0.50;99.90;;;;;;5074011;28;20204;-68
2021/12/10 07:13:26;;;;;;;15.77;5.53;;;0.40;99.90;;;;;;5073776;28;20212;-68
2021/12/10 07:15:53;;;;;;;10.15;5.00;;;0.40;99.90;;;;;;5055708;28;20570;-67
2021/12/10 07:18:20;;;;;;;9.18;4.93;;;0.40;99.90;;;;;;5073637;28;20208;-67
2021/12/10 07:20:47;;;;;;;10.98;7.20;;;0.40;99.90;;;;;;5073684;28;20200;-68
2021/12/10 07:23:14;;;;;;;8.98;5.78;;;0.40;99.90;;;;;;5073766;28;20196;-68
2021/12/10 07:25:41;;;;;;;12.73;5.82;;;0.40;99.90;;;;;;5073326;28;20218;-68
2021/12/10 07:28:08;;;;;;;6.10;4.75;;;0.40;99.90;;;;;;5073809;28;20215;-67
2021/12/10 07:30:35;;;;;;;8.15;4.97;;;0.40;99.90;;;;;;5073484;28;20683;-67
2021/12/10 07:33:02;;;;;;;10.57;6.18;;;0.30;99.90;;;;;;5073084;28;20231;-67
2021/12/10 07:35:29;;;;;;;11.00;6.13;;;0.30;99.90;;;;;;5073597;28;20199;-67
2021/12/10 07:37:55;;;;;;;10.98;6.78;;;0.30;99.90;;;;;;5073760;28;20553;-67
2021/12/10 07:40:25;;;;;;;16.92;7.10;;;0.30;99.90;;;;;;5073348;28;20655;-67
2021/12/10 07:42:51;;;;;;;12.48;7.38;;;0.30;99.90;;;;;;5073389;28;20204;-67
2021/12/10 07:45:18;;;;;;;19.58;11.38;;;0.30;99.90;;;;;;5073530;28;20230;-67
2021/12/10 07:47:49;;;;;;;20.02;11.57;;;0.30;99.90;;;;;;5073376;28;20542;-67
2021/12/10 07:50:20;;;;;;;29.95;14.18;;;0.30;99.90;;;;;;5073197;28;20223;-67
2021/12/10 07:52:48;;;;;;;14.07;9.10;;;0.30;99.90;;;;;;5073308;28;20208;-67
2021/12/10 07:55:16;;;;;;;25.17;13.85;;;0.20;99.90;;;;;;5072089;28;20253;-67
2021/12/10 07:57:44;;;;;;;21.35;10.85;;;0.40;99.90;;;;;;5073201;28;20203;-67
2021/12/10 08:00:14;;;;;;;14.98;8.73;;;0.40;99.90;;;;;;5072071;28;20203;-67
2021/12/10 08:02:41;;;;;;;9.88;6.75;;;0.60;99.90;;;;;;5073552;28;20196;-67
2021/12/10 08:05:08;;;;;;;11.23;6.97;;;0.60;99.90;;;;;;5072771;28;20682;-67
2021/12/10 08:07:35;;;;;;;9.25;5.40;;;0.70;99.90;;;;;;5073134;28;20278;-67
2021/12/10 08:10:04;;;;;;;7.65;5.93;;;0.70;99.90;;;;;;5073021;28;20204;-67
2021/12/10 08:12:30;;;;;;;9.45;6.05;;;0.70;99.90;;;;;;5073052;28;20216;-67
2021/12/10 08:14:57;;;;;;;8.82;5.75;;;0.70;99.90;;;;;;5071825;28;20204;-67
2021/12/10 08:17:24;;;;;;;11.90;6.90;;;0.80;99.90;;;;;;5073109;28;20203;-67
2021/12/10 08:19:52;;;;;;;15.25;7.05;;;0.80;99.90;;;;;;5072725;28;20215;-67
2021/12/10 08:22:19;;;;;;;11.68;8.85;;;0.80;99.90;;;;;;5072903;28;20659;-67
2021/12/10 08:24:47;;;;;;;16.92;9.70;;;0.80;99.90;;;;;;5072100;28;20204;-67
2021/12/10 08:27:14;;;;;;;12.65;7.95;;;0.80;99.90;;;;;;5072881;28;20215;-67
2021/12/10 08:29:43;;;;;;;17.38;10.25;;;0.80;99.90;;;;;;5072488;28;20285;-67
2021/12/10 08:32:12;;;;;;;11.15;7.90;;;0.90;99.90;;;;;;5072461;28;20199;-68
2021/12/10 08:34:40;;;;;;;8.95;7.40;;;0.90;99.90;;;;;;5072933;28;20200;-68
2021/12/10 08:37:07;;;;;;;14.30;7.22;;;0.90;99.90;;;;;;5074395;28;20265;-68
2021/12/10 08:39:34;;;;;;;12.15;6.90;;;0.90;99.90;;;;;;5076886;28;20196;-68
2021/12/10 08:42:01;;;;;;;9.10;6.57;;;0.90;99.90;;;;;;5076413;28;20227;-68
2021/12/10 08:44:28;;;;;;;10.75;7.13;;;1.00;99.90;;;;;;5076360;28;20200;-68
2021/12/10 08:46:55;;;;;;;10.07;5.95;;;1.00;99.90;;;;;;5076739;28;20192;-68
2021/12/10 08:49:22;;;;;;;8.00;6.55;;;1.10;99.90;;;;;;5076838;28;20204;-68
2021/12/10 08:51:52;;;;;;;8.10;6.00;;;1.30;99.90;;;;;;5076716;28;20203;-67
2021/12/10 08:54:25;;;;;;;9.88;5.80;;;1.40;99.90;;;;;;5074965;28;20220;-68
2021/12/10 08:56:51;;;;;;;11.45;6.40;;;1.50;99.90;;;;;;5076726;28;20237;-68
2021/12/10 08:59:21;;;;;;;14.68;7.55;;;1.60;99.90;;;;;;5076224;28;20204;-68
2021/12/10 09:01:50;;;;;;;22.13;8.88;;;1.60;99.90;;;;;;5076307;28;20197;-67
2021/12/10 09:04:17;;;;;;;9.25;6.38;;;1.70;99.90;;;;;;5074991;28;20542;-68
2021/12/10 09:06:48;;;;;;;13.00;8.15;;;1.80;99.90;;;;;;5076326;28;20211;-68
2021/12/10 09:09:15;;;;;;;11.73;6.75;;;1.90;99.90;;;;;;5076032;28;20189;-68
2021/12/10 09:11:46;;;;;;;12.27;7.43;;;1.90;99.90;;;;;;5076647;28;20208;-68
2021/12/10 09:14:13;;;;;;;8.27;5.90;;;1.90;99.90;;;;;;5075938;28;20212;-68
2021/12/10 09:16:40;;;;;;;9.88;6.40;;;2.00;99.90;;;;;;5076282;28;20204;-68
2021/12/10 09:19:11;;;;;;;21.25;7.00;;;2.00;99.90;;;;;;5076530;28;20196;-68
2021/12/10 09:21:40;;;;;;;9.73;6.50;;;1.90;99.90;;;;;;5076506;28;20207;-68
2021/12/10 09:24:10;;;;;;;12.57;6.70;;;2.00;99.90;;;;;;5058562;28;20200;-68
2021/12/10 09:26:39;;;;;;;12.00;6.40;;;2.00;99.90;;;;;;5076302;28;20211;-68
2021/12/10 09:29:09;;;;;;;12.55;6.35;;;2.00;99.90;;;;;;5076443;28;20639;-69
2021/12/10 09:31:38;;;;;;;11.48;6.10;;;1.90;99.90;;;;;;5076620;28;20208;-68
2021/12/10 09:34:06;;;;;;;14.68;6.22;;;1.80;99.90;;;;;;5076029;28;20705;-68
2021/12/10 09:36:34;;;;;;;7.43;5.38;;;1.70;99.90;;;;;;5075888;28;20720;-68
2021/12/10 09:39:00;;;;;;;8.40;6.30;;;1.70;99.90;;;;;;5075542;28;20210;-68
2021/12/10 09:41:28;;;;;;;13.65;8.43;;;1.60;99.90;;;;;;5075632;28;20199;-68
2021/12/10 09:43:55;;;;;;;6.40;5.70;;;1.50;99.90;;;;;;5075541;28;20670;-68
2021/12/10 09:46:21;;;;;;;9.18;6.50;;;1.40;99.90;;;;;;5075886;28;20245;-68
2021/12/10 09:48:51;;;;;;;13.13;6.93;;;1.40;99.90;;;;;;5074677;28;20216;-68
2021/12/10 09:51:31;;;;;;;9.00;6.75;;;1.40;99.90;;;;;;5075316;28;20235;-68
2021/12/10 09:54:01;;;;;;;13.85;6.68;;;1.30;99.90;;;;;;5075447;28;20223;-68
2021/12/10 09:56:29;;;;;;;10.77;6.70;;;1.30;99.90;;;;;;5075495;28;20192;-68
2021/12/10 09:58:56;;;;;;;9.93;6.13;;;1.40;99.90;;;;;;5076340;28;20196;-68
2021/12/10 10:01:29;;;;;;;28.80;16.23;;;1.50;99.90;;;;;;5076057;28;20196;-68
2021/12/10 10:04:00;;;;;;;35.63;14.30;;;1.40;99.90;;;;;;5075638;28;20250;-68
2021/12/10 10:06:39;;;;;;;13.85;8.55;;;1.30;99.90;;;;;;5075281;28;20552;-68
2021/12/10 10:09:09;;;;;;;16.75;6.38;;;1.30;99.90;;;;;;5075224;28;20191;-68
2021/12/10 10:11:35;;;;;;;13.23;6.43;;;1.40;99.90;;;;;;5074933;28;20678;-68
2021/12/10 10:14:04;;;;;;;11.95;7.35;;;1.50;99.90;;;;;;5074753;28;20250;-68
2021/12/10 10:16:33;;;;;;;10.45;6.63;;;1.70;99.90;;;;;;5074762;28;20207;-68
2021/12/10 10:18:59;;;;;;;12.40;7.95;;;1.50;99.90;;;;;;5074902;28;20604;-68
2021/12/10 10:21:36;;;;;;;6.70;6.00;;;1.60;99.90;;;;;;5074841;28;20200;-68
2021/12/10 10:24:04;;;;;;;13.23;7.78;;;1.50;99.90;;;;;;5074095;28;20191;-68
2021/12/10 10:26:44;;;;;;;11.10;7.18;;;1.70;99.90;;;;;;5075326;28;20219;-68
2021/12/10 10:29:15;;;;;;;7.18;5.70;;;1.70;99.90;;;;;;5075302;28;20188;-68
2021/12/10 10:31:50;;;;;;;13.10;6.68;;;1.80;99.90;;;;;;5075283;28;20192;-68
2021/12/10 10:34:18;;;;;;;11.80;9.20;;;1.90;99.90;;;;;;5074756;28;20218;-68
2021/12/10 10:36:44;;;;;;;14.27;7.50;;;2.00;99.90;;;;;;5073273;28;20204;-68
2021/12/10 10:39:15;;;;;;;12.30;7.25;;;1.90;99.90;;;;;;5074903;28;20603;-68
2021/12/10 10:41:44;;;;;;;11.07;7.20;;;2.00;99.90;;;;;;5074802;28;20184;-68
2021/12/10 10:44:11;;;;;;;8.10;5.97;;;2.00;99.90;;;;;;5074989;28;20208;-69
2021/12/10 10:46:37;;;;;;;7.82;5.30;;;1.90;99.90;;;;;;5074701;28;20638;-68
2021/12/10 10:49:05;;;;;;;12.00;5.95;;;1.80;99.90;;;;;;5074489;28;20682;-68
2021/12/10 10:51:40;;;;;;;12.00;7.43;;;1.90;99.90;;;;;;5074619;28;20235;-68
2021/12/10 10:54:11;;;;;;;7.80;6.85;;;2.00;99.90;;;;;;5074703;28;20271;-68
2021/12/10 10:56:44;;;;;;;7.97;6.90;;;2.20;99.90;;;;;;5074744;28;20276;-68
2021/12/10 10:59:19;;;;;;;10.57;7.43;;;2.10;99.90;;;;;;5074255;28;20222;-67
2021/12/10 11:02:07;;;;;;;8.32;7.47;;;2.10;99.90;;;;;;5074527;28;20202;-67
2021/12/10 11:04:41;;;;;;;9.77;5.55;;;2.10;99.90;;;;;;5074242;28;20667;-68
2021/12/10 11:07:21;;;;;;;7.50;5.68;;;2.10;99.90;;;;;;5074042;28;20198;-68
2021/12/10 11:09:59;;;;;;;11.55;6.18;;;2.10;99.90;;;;;;5073879;28;20217;-68
2021/12/10 11:12:31;;;;;;;9.07;5.15;;;2.20;99.90;;;;;;5074319;28;20188;-67
2021/12/10 11:15:00;;;;;;;11.40;6.60;;;2.40;99.90;;;;;;5074343;28;20219;-67
2021/12/10 11:17:32;;;;;;;13.25;6.28;;;2.30;99.90;;;;;;5073849;28;20210;-66
2021/12/10 11:20:09;;;;;;;6.50;5.45;;;2.20;99.90;;;;;;5073739;28;20648;-66
2021/12/10 11:22:46;;;;;;;9.05;5.80;;;2.00;99.90;;;;;;5073808;28;20186;-66
2021/12/10 11:25:23;;;;;;;11.93;6.07;;;2.10;99.90;;;;;;5073420;28;20214;-66
2021/12/10 11:27:50;;;;;;;10.68;7.68;;;2.20;99.90;;;;;;5074016;28;20195;-66
2021/12/10 11:30:25;;;;;;;8.50;6.97;;;2.20;99.90;;;;;;5073657;28;20200;-66
2021/12/10 11:33:08;;;;;;;10.63;7.55;;;2.20;99.90;;;;;;5073676;28;20191;-67
2021/12/10 11:35:42;;;;;;;12.70;7.68;;;2.10;99.90;;;;;;5073885;28;20630;-66
2021/12/10 11:38:13;;;;;;;11.13;7.68;;;2.10;99.90;;;;;;5074348;28;20272;-66
2021/12/10 11:41:00;;;;;;;12.90;8.18;;;2.10;99.90;;;;;;5072289;28;20237;-67
2021/12/10 11:43:44;;;;;;;9.98;7.88;;;2.00;99.90;;;;;;5073308;28;20188;-66
2021/12/10 11:48:56;;;;;;;18.38;9.07;;;2.00;99.90;;;;;;5073835;28;20188;-67
2021/12/10 11:51:33;;;;;;;12.15;8.45;;;1.90;99.90;;;;;;5073051;28;20231;-67
2021/12/10 11:54:07;;;;;;;15.45;7.50;;;1.90;99.90;;;;;;5073150;28;20235;-67
2021/12/10 11:56:39;;;;;;;13.38;8.63;;;1.90;99.90;;;;;;5072765;28;20731;-67
2021/12/10 11:59:17;;;;;;;10.27;7.88;;;1.80;99.90;;;;;;5073427;28;20254;-67
2021/12/10 12:02:08;;;;;;;12.23;8.75;;;1.80;99.90;;;;;;5071860;28;20237;-66
2021/12/10 12:04:51;;;;;;;18.05;10.82;;;1.80;99.90;;;;;;5069831;28;20218;-67
2021/12/10 12:07:36;;;;;;;13.43;10.07;;;1.90;99.90;;;;;;5073555;28;20637;-67
2021/12/10 12:10:22;;;;;;;15.13;9.77;;;2.00;99.90;;;;;;5073730;28;20207;-67
2021/12/10 12:15:47;;;;;;;10.88;9.13;;;2.20;99.90;;;;;;5080224;28;20180;-67
2021/12/10 12:18:23;;;;;;;12.35;10.25;;;2.10;99.90;;;;;;5080206;28;20187;-67
2021/12/10 12:21:03;;;;;;;11.70;9.13;;;2.00;99.90;;;;;;5079906;28;20237;-67
2021/12/10 12:26:29;;;;;;;15.23;7.85;;;2.10;99.90;;;;;;5080122;28;20195;-67
2021/12/10 12:29:11;;;;;;;15.10;10.07;;;2.10;99.90;;;;;;5080076;28;20231;-68
2021/12/10 12:31:44;;;;;;;17.33;8.00;;;2.10;99.90;;;;;;5080202;28;20203;-67
2021/12/10 12:34:14;;;;;;;14.65;7.90;;;2.20;99.90;;;;;;5079809;28;20219;-68
2021/12/10 12:36:55;;;;;;;16.95;9.65;;;2.30;99.90;;;;;;5062350;28;20208;-68
2021/12/10 12:39:50;;;;;;;15.30;8.73;;;2.30;99.90;;;;;;5080026;28;20207;-68
2021/12/10 12:42:17;;;;;;;11.82;8.57;;;2.20;99.90;;;;;;5079224;28;20192;-67
2021/12/10 12:44:46;;;;;;;12.23;7.30;;;2.20;99.90;;;;;;5079811;28;20564;-67
2021/12/10 12:47:21;;;;;;;10.77;8.55;;;2.20;99.90;;;;;;5079891;28;20606;-66
2021/12/10 12:49:48;;;;;;;11.45;8.90;;;2.20;99.90;;;;;;5080158;28;20594;-67
2021/12/10 12:52:22;;;;;;;17.73;9.10;;;2.20;99.90;;;;;;5080810;28;20184;-68
2021/12/10 12:55:11;;;;;;;12.25;8.32;;;2.20;99.90;;;;;;5078588;28;20228;-67
2021/12/10 12:57:55;;;;;;;9.57;7.90;;;2.20;99.90;;;;;;5080220;28;20189;-67
2021/12/10 13:00:25;;;;;;;13.98;9.25;;;2.20;99.90;;;;;;5080111;28;20187;-67
2021/12/10 13:02:55;;;;;;;15.10;10.27;;;2.30;99.90;;;;;;5079809;28;20773;-67
2021/12/10 13:05:36;;;;;;;15.77;11.07;;;2.20;99.90;;;;;;5080109;28;20188;-67
2021/12/10 13:08:15;;;;;;;13.07;8.90;;;2.20;99.90;;;;;;5079672;28;20195;-67
2021/12/10 13:10:49;;;;;;;9.90;8.90;;;2.30;99.90;;;;;;5079385;28;20552;-67
2021/12/10 13:13:25;;;;;;;12.25;9.80;;;2.20;99.90;;;;;;5080105;28;20211;-68
2021/12/10 13:15:52;;;;;;;8.23;7.38;;;2.30;99.90;;;;;;5079638;28;20195;-67
2021/12/10 13:18:20;;;;;;;11.88;8.98;;;2.30;99.90;;;;;;5079823;28;20196;-69
2021/12/10 13:20:52;;;;;;;11.60;7.55;;;2.40;99.90;;;;;;5079636;28;20681;-69
2021/12/10 13:23:27;;;;;;;11.15;8.73;;;2.30;99.90;;;;;;5076804;28;20549;-69
2021/12/10 13:25:59;;;;;;;14.35;10.70;;;2.20;99.90;;;;;;5076773;28;20198;-69